sensor_id;sensor_type;location;lat;lon;timestamp;pressure;altitude;pressure_sealevel;temperature;humidity
28131;BME280;15418;42.634;23.374;2022-08-01T00:01:31;94208.47;;;19.70;100.00
28131;BME280;15418;42.634;23.374;2022-08-01T00:03:56;94211.88;;;19.67;100.00
28131;BME280;15418;42.634;23.374;2022-08-01T00:06:22;94201.22;;;19.65;100.00
28131;BME280;15418;42.634;23.374;2022-08-01T00:08:47;94202.81;;;19.54;100.00
28131;BME280;15418;42.634;23.374;2022-08-01T00:11:23;94204.63;;;19.62;100.00
28131;BME280;15418;42.634;23.374;2022-08-01T00:13:49;94196.38;;;19.62;98.84
28131;BME280;15418;42.634;23.374;2022-08-01T00:16:14;94200.53;;;19.68;99.14
28131;BME280;15418;42.634;23.374;2022-08-01T00:18:41;94194.59;;;19.66;96.30
28131;BME280;15418;42.634;23.374;2022-08-01T00:21:06;94193.31;;;19.64;95.91
28131;BME280;15418;42.634;23.374;2022-08-01T00:23:32;94194.13;;;19.64;92.56
28131;BME280;15418;42.634;23.374;2022-08-01T00:25:57;94209.72;;;19.72;93.38
28131;BME280;15418;42.634;23.374;2022-08-01T00:28:23;94199.47;;;19.60;91.88
28131;BME280;15418;42.634;23.374;2022-08-01T00:30:48;94203.00;;;19.49;92.26
28131;BME280;15418;42.634;23.374;2022-08-01T00:33:14;94208.28;;;19.54;92.21
28131;BME280;15418;42.634;23.374;2022-08-01T00:35:39;94202.75;;;19.41;92.09
28131;BME280;15418;42.634;23.374;2022-08-01T00:38:04;94206.88;;;19.35;92.14
28131;BME280;15418;42.634;23.374;2022-08-01T00:40:30;94213.53;;;19.47;90.98
28131;BME280;15418;42.634;23.374;2022-08-01T00:42:55;94209.31;;;19.49;100.00
28131;BME280;15418;42.634;23.374;2022-08-01T00:45:21;94217.88;;;18.93;100.00
28131;BME280;15418;42.634;23.374;2022-08-01T00:47:46;94234.50;;;18.88;100.00
28131;BME280;15418;42.634;23.374;2022-08-01T00:50:12;94216.50;;;18.27;100.00
28131;BME280;15418;42.634;23.374;2022-08-01T00:52:39;94211.72;;;18.15;100.00
28131;BME280;15418;42.634;23.374;2022-08-01T00:55:05;94224.03;;;18.00;100.00
28131;BME280;15418;42.634;23.374;2022-08-01T00:57:30;94214.31;;;18.11;100.00
28131;BME280;15418;42.634;23.374;2022-08-01T00:59:56;94227.41;;;17.88;100.00
28131;BME280;15418;42.634;23.374;2022-08-01T01:02:21;94227.44;;;17.79;100.00
28131;BME280;15418;42.634;23.374;2022-08-01T01:04:47;94203.19;;;17.60;100.00
28131;BME280;15418;42.634;23.374;2022-08-01T01:07:29;94211.16;;;17.83;100.00
28131;BME280;15418;42.634;23.374;2022-08-01T01:18:09;94203.47;;;17.59;100.00
28131;BME280;15418;42.634;23.374;2022-08-01T01:20:44;94179.25;;;17.04;100.00
28131;BME280;15418;42.634;23.374;2022-08-01T01:29:04;94196.59;;;17.44;100.00
28131;BME280;15418;42.634;23.374;2022-08-01T01:31:35;94200.63;;;17.46;100.00
28131;BME280;15418;42.634;23.374;2022-08-01T01:34:03;94183.09;;;17.39;100.00
28131;BME280;15418;42.634;23.374;2022-08-01T01:36:31;94179.38;;;17.34;100.00
28131;BME280;15418;42.634;23.374;2022-08-01T01:38:58;94184.22;;;17.29;100.00
28131;BME280;15418;42.634;23.374;2022-08-01T01:41:25;94182.63;;;17.28;100.00
28131;BME280;15418;42.634;23.374;2022-08-01T01:43:53;94166.03;;;17.15;100.00
28131;BME280;15418;42.634;23.374;2022-08-01T01:46:22;94187.13;;;17.24;100.00
28131;BME280;15418;42.634;23.374;2022-08-01T01:48:49;94174.41;;;17.28;100.00
28131;BME280;15418;42.634;23.374;2022-08-01T01:51:16;94171.03;;;17.31;100.00
28131;BME280;15418;42.634;23.374;2022-08-01T01:53:43;94172.59;;;17.41;100.00
28131;BME280;15418;42.634;23.374;2022-08-01T01:56:11;94178.84;;;17.50;100.00
28131;BME280;15418;42.634;23.374;2022-08-01T01:58:39;94177.22;;;17.58;100.00
28131;BME280;15418;42.634;23.374;2022-08-01T02:01:06;94167.44;;;17.39;100.00
28131;BME280;15418;42.634;23.374;2022-08-01T02:03:32;94161.50;;;17.19;100.00
28131;BME280;15418;42.634;23.374;2022-08-01T02:06:02;94165.56;;;17.13;100.00
28131;BME280;15418;42.634;23.374;2022-08-01T02:08:29;94177.47;;;17.17;100.00
28131;BME280;15418;42.634;23.374;2022-08-01T02:10:55;94156.34;;;17.27;100.00
28131;BME280;15418;42.634;23.374;2022-08-01T02:13:40;94178.38;;;17.39;100.00
28131;BME280;15418;42.634;23.374;2022-08-01T02:16:08;94157.78;;;17.33;100.00
28131;BME280;15418;42.634;23.374;2022-08-01T02:18:36;94165.69;;;17.34;100.00
28131;BME280;15418;42.634;23.374;2022-08-01T02:21:04;94174.88;;;17.30;100.00
28131;BME280;15418;42.634;23.374;2022-08-01T02:23:34;94164.25;;;17.37;100.00
28131;BME280;15418;42.634;23.374;2022-08-01T02:26:03;94148.63;;;17.29;100.00
28131;BME280;15418;42.634;23.374;2022-08-01T02:28:35;94151.34;;;17.38;100.00
28131;BME280;15418;42.634;23.374;2022-08-01T02:31:04;94158.28;;;17.35;100.00
28131;BME280;15418;42.634;23.374;2022-08-01T02:33:38;94150.19;;;17.47;100.00
28131;BME280;15418;42.634;23.374;2022-08-01T02:36:06;94161.97;;;17.39;100.00
28131;BME280;15418;42.634;23.374;2022-08-01T02:38:35;94162.31;;;17.29;100.00
28131;BME280;15418;42.634;23.374;2022-08-01T02:41:09;94165.41;;;17.18;100.00
28131;BME280;15418;42.634;23.374;2022-08-01T02:43:42;94160.56;;;17.15;100.00
28131;BME280;15418;42.634;23.374;2022-08-01T02:46:12;94158.97;;;17.06;100.00
28131;BME280;15418;42.634;23.374;2022-08-01T02:48:42;94156.75;;;16.99;100.00
28131;BME280;15418;42.634;23.374;2022-08-01T02:51:08;94156.22;;;16.88;100.00
28131;BME280;15418;42.634;23.374;2022-08-01T02:53:38;94153.69;;;16.92;100.00
28131;BME280;15418;42.634;23.374;2022-08-01T02:56:07;94153.97;;;17.08;100.00
28131;BME280;15418;42.634;23.374;2022-08-01T02:58:35;94138.84;;;17.10;100.00
28131;BME280;15418;42.634;23.374;2022-08-01T03:01:02;94145.25;;;17.14;100.00
28131;BME280;15418;42.634;23.374;2022-08-01T03:03:29;94147.19;;;17.23;100.00
28131;BME280;15418;42.634;23.374;2022-08-01T03:05:56;94150.22;;;17.30;100.00
28131;BME280;15418;42.634;23.374;2022-08-01T03:08:23;94151.28;;;17.55;100.00
28131;BME280;15418;42.634;23.374;2022-08-01T03:10:50;94160.47;;;17.59;100.00
28131;BME280;15418;42.634;23.374;2022-08-01T03:13:17;94163.50;;;17.58;100.00
28131;BME280;15418;42.634;23.374;2022-08-01T03:15:44;94159.66;;;17.59;100.00
28131;BME280;15418;42.634;23.374;2022-08-01T03:18:11;94161.13;;;17.47;100.00
28131;BME280;15418;42.634;23.374;2022-08-01T03:20:38;94144.47;;;17.14;100.00
28131;BME280;15418;42.634;23.374;2022-08-01T03:23:06;94162.34;;;17.11;100.00
28131;BME280;15418;42.634;23.374;2022-08-01T03:25:36;94161.88;;;17.00;100.00
28131;BME280;15418;42.634;23.374;2022-08-01T03:28:06;94167.97;;;16.97;100.00
28131;BME280;15418;42.634;23.374;2022-08-01T03:30:33;94164.78;;;16.95;100.00
28131;BME280;15418;42.634;23.374;2022-08-01T03:33:02;94162.34;;;16.94;100.00
28131;BME280;15418;42.634;23.374;2022-08-01T03:35:37;94170.88;;;17.01;100.00
28131;BME280;15418;42.634;23.374;2022-08-01T03:38:05;94173.47;;;16.97;100.00
28131;BME280;15418;42.634;23.374;2022-08-01T03:40:38;94173.94;;;16.91;100.00
28131;BME280;15418;42.634;23.374;2022-08-01T03:43:16;94168.97;;;16.93;100.00
28131;BME280;15418;42.634;23.374;2022-08-01T03:45:47;94175.56;;;17.00;100.00
28131;BME280;15418;42.634;23.374;2022-08-01T03:48:16;94176.69;;;16.99;100.00
28131;BME280;15418;42.634;23.374;2022-08-01T03:50:49;94173.00;;;17.04;100.00
28131;BME280;15418;42.634;23.374;2022-08-01T03:53:15;94172.16;;;17.03;100.00
28131;BME280;15418;42.634;23.374;2022-08-01T03:55:43;94168.13;;;17.10;100.00
28131;BME280;15418;42.634;23.374;2022-08-01T03:58:09;94170.38;;;17.25;100.00
28131;BME280;15418;42.634;23.374;2022-08-01T04:00:39;94145.41;;;17.18;100.00
28131;BME280;15418;42.634;23.374;2022-08-01T04:03:07;94158.13;;;17.31;100.00
28131;BME280;15418;42.634;23.374;2022-08-01T04:05:33;94161.53;;;17.11;100.00
28131;BME280;15418;42.634;23.374;2022-08-01T04:07:58;94169.09;;;17.23;100.00
28131;BME280;15418;42.634;23.374;2022-08-01T04:10:25;94165.88;;;17.20;100.00
28131;BME280;15418;42.634;23.374;2022-08-01T04:12:51;94170.56;;;16.94;100.00
28131;BME280;15418;42.634;23.374;2022-08-01T04:15:17;94178.78;;;16.94;100.00
28131;BME280;15418;42.634;23.374;2022-08-01T04:17:43;94163.97;;;17.12;100.00
28131;BME280;15418;42.634;23.374;2022-08-01T04:20:09;94156.41;;;17.00;100.00
28131;BME280;15418;42.634;23.374;2022-08-01T04:22:36;94163.78;;;17.17;100.00
28131;BME280;15418;42.634;23.374;2022-08-01T04:25:26;94169.88;;;17.41;100.00
28131;BME280;15418;42.634;23.374;2022-08-01T04:27:52;94160.50;;;17.50;100.00
28131;BME280;15418;42.634;23.374;2022-08-01T04:30:29;94171.72;;;17.66;100.00
28131;BME280;15418;42.634;23.374;2022-08-01T04:32:59;94170.84;;;17.83;100.00
28131;BME280;15418;42.634;23.374;2022-08-01T04:35:26;94178.56;;;17.99;100.00
28131;BME280;15418;42.634;23.374;2022-08-01T04:37:53;94165.97;;;17.98;100.00
28131;BME280;15418;42.634;23.374;2022-08-01T04:40:19;94170.22;;;18.16;100.00
28131;BME280;15418;42.634;23.374;2022-08-01T04:42:47;94165.72;;;18.12;100.00
28131;BME280;15418;42.634;23.374;2022-08-01T04:45:14;94160.31;;;18.33;100.00
28131;BME280;15418;42.634;23.374;2022-08-01T04:47:40;94150.78;;;18.30;100.00
28131;BME280;15418;42.634;23.374;2022-08-01T04:50:08;94161.38;;;18.41;100.00
28131;BME280;15418;42.634;23.374;2022-08-01T04:52:35;94171.97;;;18.72;100.00
28131;BME280;15418;42.634;23.374;2022-08-01T04:55:00;94164.41;;;18.90;100.00
28131;BME280;15418;42.634;23.374;2022-08-01T04:57:26;94169.50;;;19.01;100.00
28131;BME280;15418;42.634;23.374;2022-08-01T04:59:51;94167.16;;;19.11;100.00
28131;BME280;15418;42.634;23.374;2022-08-01T05:02:22;94163.66;;;19.23;100.00
28131;BME280;15418;42.634;23.374;2022-08-01T05:04:48;94139.72;;;19.24;100.00
28131;BME280;15418;42.634;23.374;2022-08-01T05:07:15;94148.56;;;19.29;100.00
28131;BME280;15418;42.634;23.374;2022-08-01T05:09:41;94154.13;;;19.54;100.00
28131;BME280;15418;42.634;23.374;2022-08-01T05:12:08;94146.91;;;19.62;100.00
28131;BME280;15418;42.634;23.374;2022-08-01T05:14:34;94156.66;;;19.72;99.84
28131;BME280;15418;42.634;23.374;2022-08-01T05:17:02;94151.06;;;19.81;98.60
28131;BME280;15418;42.634;23.374;2022-08-01T05:19:32;94151.34;;;19.88;97.97
28131;BME280;15418;42.634;23.374;2022-08-01T05:22:01;94143.78;;;19.97;96.09
28131;BME280;15418;42.634;23.374;2022-08-01T05:24:30;94143.09;;;20.13;94.23
28131;BME280;15418;42.634;23.374;2022-08-01T05:26:56;94137.25;;;20.14;93.73
28131;BME280;15418;42.634;23.374;2022-08-01T05:29:21;94138.50;;;20.17;94.28
28131;BME280;15418;42.634;23.374;2022-08-01T05:31:47;94141.59;;;20.28;93.19
28131;BME280;15418;42.634;23.374;2022-08-01T05:34:12;94141.38;;;20.33;91.01
28131;BME280;15418;42.634;23.374;2022-08-01T05:36:38;94139.84;;;20.48;92.03
28131;BME280;15418;42.634;23.374;2022-08-01T05:39:04;94148.31;;;20.55;90.37
28131;BME280;15418;42.634;23.374;2022-08-01T05:41:30;94143.16;;;20.66;87.75
28131;BME280;15418;42.634;23.374;2022-08-01T05:43:55;94144.41;;;20.81;84.52
28131;BME280;15418;42.634;23.374;2022-08-01T05:46:21;94143.09;;;20.91;80.50
28131;BME280;15418;42.634;23.374;2022-08-01T05:48:46;94136.78;;;20.90;84.51
28131;BME280;15418;42.634;23.374;2022-08-01T05:51:12;94146.41;;;20.96;85.22
28131;BME280;15418;42.634;23.374;2022-08-01T05:53:37;94145.91;;;21.07;79.82
28131;BME280;15418;42.634;23.374;2022-08-01T05:56:02;94152.06;;;21.16;81.18
28131;BME280;15418;42.634;23.374;2022-08-01T05:58:28;94158.34;;;21.29;79.89
28131;BME280;15418;42.634;23.374;2022-08-01T06:00:53;94138.50;;;21.23;83.02
28131;BME280;15418;42.634;23.374;2022-08-01T06:03:19;94148.41;;;21.40;82.26
28131;BME280;15418;42.634;23.374;2022-08-01T06:05:44;94150.09;;;21.45;80.92
28131;BME280;15418;42.634;23.374;2022-08-01T06:08:10;94156.59;;;21.52;80.55
28131;BME280;15418;42.634;23.374;2022-08-01T06:10:36;94149.25;;;21.57;78.75
28131;BME280;15418;42.634;23.374;2022-08-01T06:13:01;94154.44;;;21.58;75.24
28131;BME280;15418;42.634;23.374;2022-08-01T06:15:32;94162.38;;;21.76;71.01
28131;BME280;15418;42.634;23.374;2022-08-01T06:17:57;94158.53;;;22.28;66.53
28131;BME280;15418;42.634;23.374;2022-08-01T06:20:23;94172.41;;;23.19;60.93
28131;BME280;15418;42.634;23.374;2022-08-01T06:22:48;94161.75;;;24.53;53.21
28131;BME280;15418;42.634;23.374;2022-08-01T06:25:13;94146.84;;;24.62;53.44
28131;BME280;15418;42.634;23.374;2022-08-01T06:27:39;94134.03;;;25.41;48.05
28131;BME280;15418;42.634;23.374;2022-08-01T06:30:05;94145.59;;;26.29;46.09
28131;BME280;15418;42.634;23.374;2022-08-01T06:32:33;94148.91;;;26.01;45.15
28131;BME280;15418;42.634;23.374;2022-08-01T06:34:58;94136.88;;;27.82;41.46
28131;BME280;15418;42.634;23.374;2022-08-01T06:37:28;94130.91;;;27.69;39.97
28131;BME280;15418;42.634;23.374;2022-08-01T06:39:54;94136.44;;;27.73;40.18
28131;BME280;15418;42.634;23.374;2022-08-01T06:42:19;94140.03;;;27.66;41.05
28131;BME280;15418;42.634;23.374;2022-08-01T06:44:45;94141.31;;;28.41;39.38
28131;BME280;15418;42.634;23.374;2022-08-01T06:47:10;94126.03;;;29.25;37.70
28131;BME280;15418;42.634;23.374;2022-08-01T06:49:36;94139.69;;;28.94;37.47
28131;BME280;15418;42.634;23.374;2022-08-01T06:52:02;94132.13;;;27.93;39.08
28131;BME280;15418;42.634;23.374;2022-08-01T06:54:28;94130.28;;;27.17;40.63
28131;BME280;15418;42.634;23.374;2022-08-01T06:56:54;94125.66;;;26.69;42.58
28131;BME280;15418;42.634;23.374;2022-08-01T06:59:19;94113.19;;;27.15;41.37
28131;BME280;15418;42.634;23.374;2022-08-01T07:01:45;94126.09;;;27.66;41.22
28131;BME280;15418;42.634;23.374;2022-08-01T07:04:10;94122.56;;;27.87;41.10
28131;BME280;15418;42.634;23.374;2022-08-01T07:06:35;94120.50;;;29.03;38.52
28131;BME280;15418;42.634;23.374;2022-08-01T07:09:01;94090.63;;;29.08;37.52
28131;BME280;15418;42.634;23.374;2022-08-01T07:11:27;94108.16;;;27.49;40.58
28131;BME280;15418;42.634;23.374;2022-08-01T07:13:52;94115.38;;;27.61;41.07
28131;BME280;15418;42.634;23.374;2022-08-01T07:16:18;94120.53;;;27.66;42.54
28131;BME280;15418;42.634;23.374;2022-08-01T07:18:44;94114.88;;;29.25;38.53
28131;BME280;15418;42.634;23.374;2022-08-01T07:21:09;94122.75;;;29.56;38.28
28131;BME280;15418;42.634;23.374;2022-08-01T07:23:34;94122.19;;;29.86;37.36
28131;BME280;15418;42.634;23.374;2022-08-01T07:26:00;94115.25;;;30.09;37.03
28131;BME280;15418;42.634;23.374;2022-08-01T07:28:27;94125.22;;;30.10;37.27
28131;BME280;15418;42.634;23.374;2022-08-01T07:30:53;94132.41;;;29.29;38.85
28131;BME280;15418;42.634;23.374;2022-08-01T07:33:19;94125.63;;;29.27;38.66
28131;BME280;15418;42.634;23.374;2022-08-01T07:35:44;94112.66;;;28.77;38.85
28131;BME280;15418;42.634;23.374;2022-08-01T07:38:10;94123.31;;;27.59;42.71
28131;BME280;15418;42.634;23.374;2022-08-01T07:40:36;94112.28;;;28.17;40.66
28131;BME280;15418;42.634;23.374;2022-08-01T07:43:02;94118.22;;;28.73;40.32
28131;BME280;15418;42.634;23.374;2022-08-01T07:45:27;94113.34;;;29.10;39.29
28131;BME280;15418;42.634;23.374;2022-08-01T07:47:53;94124.78;;;29.48;38.76
28131;BME280;15418;42.634;23.374;2022-08-01T07:50:18;94116.41;;;29.48;37.52
28131;BME280;15418;42.634;23.374;2022-08-01T07:52:44;94107.59;;;29.57;37.66
28131;BME280;15418;42.634;23.374;2022-08-01T07:55:10;94112.81;;;29.47;37.89
28131;BME280;15418;42.634;23.374;2022-08-01T07:57:36;94114.97;;;28.96;37.77
28131;BME280;15418;42.634;23.374;2022-08-01T08:00:06;94123.41;;;29.78;38.18
28131;BME280;15418;42.634;23.374;2022-08-01T08:02:32;94126.78;;;29.44;37.39
28131;BME280;15418;42.634;23.374;2022-08-01T08:04:57;94115.72;;;29.11;37.94
28131;BME280;15418;42.634;23.374;2022-08-01T08:07:23;94124.38;;;29.49;37.29
28131;BME280;15418;42.634;23.374;2022-08-01T08:09:48;94114.53;;;29.97;36.96
28131;BME280;15418;42.634;23.374;2022-08-01T08:12:14;94143.69;;;28.82;39.18
28131;BME280;15418;42.634;23.374;2022-08-01T08:14:39;94122.19;;;28.47;39.36
28131;BME280;15418;42.634;23.374;2022-08-01T08:17:05;94122.53;;;28.96;38.16
28131;BME280;15418;42.634;23.374;2022-08-01T08:19:31;94133.00;;;29.73;36.99
28131;BME280;15418;42.634;23.374;2022-08-01T08:21:59;94130.69;;;29.57;36.70
28131;BME280;15418;42.634;23.374;2022-08-01T08:24:25;94120.44;;;29.29;37.37
28131;BME280;15418;42.634;23.374;2022-08-01T08:26:55;94129.38;;;28.80;37.87
28131;BME280;15418;42.634;23.374;2022-08-01T08:29:22;94125.34;;;28.81;37.56
28131;BME280;15418;42.634;23.374;2022-08-01T08:31:48;94133.38;;;28.25;38.14
28131;BME280;15418;42.634;23.374;2022-08-01T08:34:14;94130.97;;;28.41;38.08
28131;BME280;15418;42.634;23.374;2022-08-01T08:36:39;94134.53;;;28.75;37.57
28131;BME280;15418;42.634;23.374;2022-08-01T08:39:05;94134.16;;;28.58;38.13
28131;BME280;15418;42.634;23.374;2022-08-01T08:41:31;94145.28;;;28.80;37.73
28131;BME280;15418;42.634;23.374;2022-08-01T08:43:57;94126.84;;;29.26;37.95
28131;BME280;15418;42.634;23.374;2022-08-01T08:46:27;94122.06;;;29.19;37.11
28131;BME280;15418;42.634;23.374;2022-08-01T08:48:56;94123.19;;;29.47;36.54
28131;BME280;15418;42.634;23.374;2022-08-01T08:51:23;94129.22;;;29.38;36.98
28131;BME280;15418;42.634;23.374;2022-08-01T08:53:55;94118.00;;;29.42;37.62
28131;BME280;15418;42.634;23.374;2022-08-01T08:56:23;94135.72;;;28.81;38.10
28131;BME280;15418;42.634;23.374;2022-08-01T08:58:50;94125.81;;;28.36;38.25
28131;BME280;15418;42.634;23.374;2022-08-01T09:01:16;94129.97;;;27.36;39.98
28131;BME280;15418;42.634;23.374;2022-08-01T09:03:43;94133.75;;;28.34;37.06
28131;BME280;15418;42.634;23.374;2022-08-01T09:06:10;94123.41;;;28.42;37.46
28131;BME280;15418;42.634;23.374;2022-08-01T09:08:36;94125.41;;;28.23;37.69
28131;BME280;15418;42.634;23.374;2022-08-01T09:11:02;94120.19;;;27.89;38.58
28131;BME280;15418;42.634;23.374;2022-08-01T09:13:28;94119.81;;;28.49;38.24
28131;BME280;15418;42.634;23.374;2022-08-01T09:15:54;94109.91;;;28.22;37.71
28131;BME280;15418;42.634;23.374;2022-08-01T09:18:37;94101.09;;;27.99;37.18
28131;BME280;15418;42.634;23.374;2022-08-01T09:23:39;94112.22;;;27.81;37.07
28131;BME280;15418;42.634;23.374;2022-08-01T09:26:11;94092.22;;;27.39;36.48
28131;BME280;15418;42.634;23.374;2022-08-01T09:28:45;94103.06;;;27.69;37.39
28131;BME280;15418;42.634;23.374;2022-08-01T09:31:12;94099.88;;;27.78;38.53
28131;BME280;15418;42.634;23.374;2022-08-01T09:33:58;94108.81;;;27.13;38.77
28131;BME280;15418;42.634;23.374;2022-08-01T09:36:27;94102.25;;;27.65;37.65
28131;BME280;15418;42.634;23.374;2022-08-01T09:39:18;94120.22;;;28.04;37.48
28131;BME280;15418;42.634;23.374;2022-08-01T09:41:45;94108.66;;;27.91;37.47
28131;BME280;15418;42.634;23.374;2022-08-01T09:44:11;94108.69;;;28.20;37.42
28131;BME280;15418;42.634;23.374;2022-08-01T09:46:48;94093.13;;;27.93;38.54
28131;BME280;15418;42.634;23.374;2022-08-01T09:49:14;94105.38;;;27.42;39.83
28131;BME280;15418;42.634;23.374;2022-08-01T09:51:39;94110.66;;;28.01;39.68
28131;BME280;15418;42.634;23.374;2022-08-01T09:54:06;94099.53;;;28.05;37.28
28131;BME280;15418;42.634;23.374;2022-08-01T09:56:37;94103.06;;;27.69;38.10
28131;BME280;15418;42.634;23.374;2022-08-01T09:59:03;94105.97;;;26.95;39.66
28131;BME280;15418;42.634;23.374;2022-08-01T10:01:41;94088.97;;;26.45;42.99
28131;BME280;15418;42.634;23.374;2022-08-01T10:04:21;94108.34;;;26.34;42.80
28131;BME280;15418;42.634;23.374;2022-08-01T10:06:48;94096.84;;;25.87;47.81
28131;BME280;15418;42.634;23.374;2022-08-01T10:09:35;94096.94;;;26.01;49.64
28131;BME280;15418;42.634;23.374;2022-08-01T10:12:01;94103.72;;;26.00;51.10
28131;BME280;15418;42.634;23.374;2022-08-01T10:14:28;94106.84;;;25.99;49.68
28131;BME280;15418;42.634;23.374;2022-08-01T10:16:56;94081.09;;;25.57;48.10
28131;BME280;15418;42.634;23.374;2022-08-01T10:19:25;94090.47;;;25.42;47.27
28131;BME280;15418;42.634;23.374;2022-08-01T10:21:52;94095.91;;;25.34;46.61
28131;BME280;15418;42.634;23.374;2022-08-01T10:24:20;94083.00;;;25.49;51.28
28131;BME280;15418;42.634;23.374;2022-08-01T10:26:48;94079.31;;;25.79;51.42
28131;BME280;15418;42.634;23.374;2022-08-01T10:29:18;94076.75;;;25.60;48.93
28131;BME280;15418;42.634;23.374;2022-08-01T10:31:46;94077.19;;;25.62;48.11
28131;BME280;15418;42.634;23.374;2022-08-01T10:34:13;94076.59;;;25.87;47.87
28131;BME280;15418;42.634;23.374;2022-08-01T10:36:44;94076.59;;;25.87;46.41
28131;BME280;15418;42.634;23.374;2022-08-01T10:39:13;94067.81;;;25.77;47.13
28131;BME280;15418;42.634;23.374;2022-08-01T10:41:39;94070.97;;;25.76;47.71
28131;BME280;15418;42.634;23.374;2022-08-01T10:44:08;94086.16;;;25.48;48.58
28131;BME280;15418;42.634;23.374;2022-08-01T10:46:38;94080.31;;;25.57;48.87
28131;BME280;15418;42.634;23.374;2022-08-01T10:49:10;94091.28;;;25.46;50.20
28131;BME280;15418;42.634;23.374;2022-08-01T10:51:38;94061.41;;;25.73;50.36
28131;BME280;15418;42.634;23.374;2022-08-01T10:54:07;94073.34;;;25.74;49.98
28131;BME280;15418;42.634;23.374;2022-08-01T10:56:49;94076.91;;;25.74;50.45
28131;BME280;15418;42.634;23.374;2022-08-01T10:59:20;94079.81;;;25.47;49.58
28131;BME280;15418;42.634;23.374;2022-08-01T11:01:58;94072.41;;;25.59;48.76
28131;BME280;15418;42.634;23.374;2022-08-01T11:07:21;94058.03;;;25.91;49.12
28131;BME280;15418;42.634;23.374;2022-08-01T11:09:51;94062.34;;;25.84;48.45
28131;BME280;15418;42.634;23.374;2022-08-01T11:12:38;94073.31;;;25.36;49.17
28131;BME280;15418;42.634;23.374;2022-08-01T11:20:15;94056.50;;;25.56;49.77
28131;BME280;15418;42.634;23.374;2022-08-01T11:33:19;94052.03;;;25.44;48.84
28131;BME280;15418;42.634;23.374;2022-08-01T11:36:17;94034.78;;;25.61;50.20
28131;BME280;15418;42.634;23.374;2022-08-01T11:46:56;94058.84;;;25.53;50.45
28131;BME280;15418;42.634;23.374;2022-08-01T11:52:15;94047.41;;;25.55;50.48
28131;BME280;15418;42.634;23.374;2022-08-01T11:57:18;94056.69;;;25.74;49.91
28131;BME280;15418;42.634;23.374;2022-08-01T12:00:11;94049.84;;;25.64;50.36
28131;BME280;15418;42.634;23.374;2022-08-01T12:02:37;94048.31;;;25.70;50.87
28131;BME280;15418;42.634;23.374;2022-08-01T12:05:08;94055.25;;;25.91;50.83
28131;BME280;15418;42.634;23.374;2022-08-01T12:07:35;94046.28;;;25.63;50.09
28131;BME280;15418;42.634;23.374;2022-08-01T12:10:11;94051.72;;;25.49;51.65
28131;BME280;15418;42.634;23.374;2022-08-01T12:12:45;94054.06;;;25.47;51.41
28131;BME280;15418;42.634;23.374;2022-08-01T12:15:11;94047.91;;;25.68;52.44
28131;BME280;15418;42.634;23.374;2022-08-01T12:17:39;94045.94;;;25.68;53.01
28131;BME280;15418;42.634;23.374;2022-08-01T12:20:10;94039.75;;;25.90;50.74
28131;BME280;15418;42.634;23.374;2022-08-01T12:22:37;94041.97;;;25.69;51.06
28131;BME280;15418;42.634;23.374;2022-08-01T12:25:10;94043.81;;;25.55;51.66
28131;BME280;15418;42.634;23.374;2022-08-01T12:27:37;94047.22;;;25.78;52.04
28131;BME280;15418;42.634;23.374;2022-08-01T12:30:16;94053.56;;;25.79;52.09
28131;BME280;15418;42.634;23.374;2022-08-01T12:32:45;94054.22;;;25.65;51.36
28131;BME280;15418;42.634;23.374;2022-08-01T12:37:39;94053.53;;;25.75;50.65
28131;BME280;15418;42.634;23.374;2022-08-01T12:40:17;94039.69;;;25.79;52.16
28131;BME280;15418;42.634;23.374;2022-08-01T12:42:47;94046.84;;;25.83;51.10
28131;BME280;15418;42.634;23.374;2022-08-01T12:45:17;94024.03;;;25.60;51.25
28131;BME280;15418;42.634;23.374;2022-08-01T12:47:46;94038.91;;;25.37;53.14
28131;BME280;15418;42.634;23.374;2022-08-01T12:50:15;94024.94;;;25.71;55.36
28131;BME280;15418;42.634;23.374;2022-08-01T12:52:42;94032.41;;;26.08;51.11
28131;BME280;15418;42.634;23.374;2022-08-01T12:55:14;94043.19;;;26.21;51.24
28131;BME280;15418;42.634;23.374;2022-08-01T12:57:43;94039.50;;;26.06;50.29
28131;BME280;15418;42.634;23.374;2022-08-01T13:02:35;94033.91;;;26.02;50.58
28131;BME280;15418;42.634;23.374;2022-08-01T13:05:02;94036.41;;;26.14;50.45
28131;BME280;15418;42.634;23.374;2022-08-01T13:07:39;94026.66;;;26.42;48.03
28131;BME280;15418;42.634;23.374;2022-08-01T13:10:06;94025.47;;;26.47;48.28
28131;BME280;15418;42.634;23.374;2022-08-01T13:12:32;94033.38;;;26.38;49.12
28131;BME280;15418;42.634;23.374;2022-08-01T13:14:58;94037.78;;;26.49;47.19
28131;BME280;15418;42.634;23.374;2022-08-01T13:17:31;94027.56;;;26.68;46.25
28131;BME280;15418;42.634;23.374;2022-08-01T13:19:57;94041.97;;;26.85;47.08
28131;BME280;15418;42.634;23.374;2022-08-01T13:22:31;94030.91;;;27.06;47.00
28131;BME280;15418;42.634;23.374;2022-08-01T13:25:13;94024.59;;;27.09;45.33
28131;BME280;15418;42.634;23.374;2022-08-01T13:27:42;94022.56;;;26.99;45.36
28131;BME280;15418;42.634;23.374;2022-08-01T13:30:15;94024.84;;;26.75;46.29
28131;BME280;15418;42.634;23.374;2022-08-01T13:32:41;94018.41;;;26.60;48.51
28131;BME280;15418;42.634;23.374;2022-08-01T13:35:10;94008.94;;;26.72;48.80
28131;BME280;15418;42.634;23.374;2022-08-01T13:37:39;94019.22;;;26.61;48.66
28131;BME280;15418;42.634;23.374;2022-08-01T13:40:06;94024.06;;;26.75;47.49
28131;BME280;15418;42.634;23.374;2022-08-01T13:42:35;94020.16;;;26.87;48.01
28131;BME280;15418;42.634;23.374;2022-08-01T13:45:07;94012.09;;;26.67;47.76